Time;durP1;ratioP1;P1;durP2;ratioP2;P2;SDS_P1;SDS_P2;PMS_P1;PMS_P2;Temp;Humidity;BMP_temperature;BMP_pressure;BME280_temperature;BME280_humidity;BME280_pressure;Samples;Min_cycle;Max_cycle;Signal;HPM_P1;HPM_P2
2022/02/03 00:00:26;;;;;;;1.35;0.20;;;24.20;39.60;;;;;;5084163;28;20127;-59
2022/02/03 00:03:05;;;;;;;0.50;0.13;;;24.20;39.60;;;;;;5078001;28;20032;-60
2022/02/03 00:05:42;;;;;;;1.60;0.47;;;24.20;39.70;;;;;;5082920;28;20159;-60
2022/02/03 00:08:16;;;;;;;1.58;0.40;;;24.20;39.70;;;;;;5083901;28;20139;-59
2022/02/03 00:24:55;;;;;;;3.33;1.17;;;24.10;40.00;;;;;;5084354;28;20046;-60
2022/02/03 00:27:50;;;;;;;0.32;0.17;;;24.10;40.10;;;;;;5082102;28;20067;-60
2022/02/03 00:30:20;;;;;;;0.93;0.20;;;24.10;40.10;;;;;;5081503;28;20040;-60
2022/02/03 00:33:10;;;;;;;1.45;0.20;;;24.00;40.00;;;;;;5079927;28;20032;-59
2022/02/03 00:49:45;;;;;;;1.85;0.52;;;23.90;40.10;;;;;;5039412;28;20037;-60
2022/02/03 00:52:12;;;;;;;0.57;0.10;;;23.90;40.20;;;;;;5038964;28;20055;-60
2022/02/03 00:54:39;;;;;;;0.30;0.30;;;23.90;40.20;;;;;;5041851;28;20045;-60
2022/02/03 00:57:10;;;;;;;0.82;0.10;;;23.90;40.20;;;;;;5038671;28;20410;-60
2022/02/03 00:59:39;;;;;;;0.65;0.10;;;23.90;40.20;;;;;;5040115;28;20533;-60
2022/02/03 01:02:09;;;;;;;0.77;0.10;;;23.90;40.10;;;;;;5039143;28;20140;-59
2022/02/03 01:04:40;;;;;;;0.20;0.10;;;23.90;40.10;;;;;;5038005;28;20045;-60
2022/02/03 01:07:11;;;;;;;0.35;0.15;;;23.90;40.20;;;;;;5038710;28;20060;-59
2022/02/03 01:09:48;;;;;;;0.40;0.10;;;23.90;40.10;;;;;;5042944;28;20044;-60
2022/02/03 01:12:24;;;;;;;2.33;0.20;;;23.80;40.30;;;;;;5047837;28;20124;-60
2022/02/03 01:14:57;;;;;;;0.68;0.20;;;23.80;40.50;;;;;;5044005;28;20128;-59
2022/02/03 01:17:34;;;;;;;0.10;0.10;;;23.70;40.70;;;;;;5059652;28;20039;-60
2022/02/03 01:34:10;;;;;;;1.25;0.10;;;23.10;41.40;;;;;;5067493;28;20231;-58
2022/02/03 01:37:09;;;;;;;0.22;0.10;;;23.00;41.50;;;;;;5063530;28;20123;-58
2022/02/03 01:45:20;;;;;;;0.85;0.10;;;22.80;41.80;;;;;;4984996;28;20039;-56
2022/02/03 01:47:57;;;;;;;2.15;0.10;;;22.70;41.90;;;;;;4977292;28;20048;-57
2022/02/03 01:53:14;;;;;;;0.50;0.10;;;22.60;42.10;;;;;;4988606;28;20046;-59
2022/02/03 01:55:47;;;;;;;2.15;0.10;;;22.50;42.20;;;;;;4988602;28;20459;-58
2022/02/03 01:58:18;;;;;;;2.65;1.08;;;22.50;42.40;;;;;;4987730;28;20046;-59
2022/02/03 02:00:56;;;;;;;0.38;0.10;;;22.40;42.40;;;;;;5018699;28;20048;-59
2022/02/03 02:03:36;;;;;;;0.68;0.10;;;22.40;42.40;;;;;;4991136;28;20573;-60
2022/02/03 02:06:27;;;;;;;1.27;0.10;;;22.30;42.50;;;;;;5017081;28;20045;-59
2022/02/03 02:09:05;;;;;;;2.22;0.22;;;22.30;42.60;;;;;;5021648;28;20056;-59
2022/02/03 02:11:53;;;;;;;1.00;0.90;;;22.20;42.70;;;;;;5023707;28;20045;-59
2022/02/03 02:17:49;;;;;;;2.17;0.00;;;22.10;43.00;;;;;;5017519;28;20046;-60
2022/02/03 02:37:39;;;;;;;0.93;0.10;;;21.80;43.50;;;;;;5045677;28;20503;-58
2022/02/03 02:40:41;;;;;;;1.23;0.63;;;21.70;43.50;;;;;;5062229;28;20052;-57
2022/02/03 02:43:16;;;;;;;0.50;0.50;;;21.70;43.60;;;;;;5062046;28;20336;-58
2022/02/03 02:46:01;;;;;;;1.20;0.13;;;21.60;43.50;;;;;;5061517;28;20793;-57
2022/02/03 02:48:42;;;;;;;0.25;0.10;;;21.60;43.60;;;;;;5059595;28;20045;-58
2022/02/03 02:51:16;;;;;;;1.90;0.20;;;21.60;43.70;;;;;;5061800;28;20766;-57
2022/02/03 02:54:07;;;;;;;0.30;0.00;;;21.50;43.60;;;;;;5055936;28;20044;-58
2022/02/03 02:56:55;;;;;;;0.28;0.10;;;21.50;43.70;;;;;;5065349;28;20072;-59
2022/02/03 02:59:47;;;;;;;0.28;0.20;;;21.50;43.80;;;;;;5090126;28;20044;-57
2022/02/03 03:30:22;;;;;;;0.63;0.03;;;21.20;44.10;;;;;;4943867;29;20051;-58
2022/02/03 03:33:04;;;;;;;0.22;0.10;;;21.20;44.10;;;;;;4945181;29;20103;-58
2022/02/03 03:35:39;;;;;;;0.10;0.10;;;21.20;44.10;;;;;;4931702;29;20413;-58
2022/02/03 03:38:09;;;;;;;0.20;0.10;;;21.20;44.10;;;;;;4952094;28;20077;-58
2022/02/03 03:40:41;;;;;;;0.75;0.10;;;21.10;44.10;;;;;;4953068;28;20059;-58
2022/02/03 03:43:11;;;;;;;1.95;0.10;;;21.10;44.10;;;;;;4948174;28;20074;-58
2022/02/03 03:45:46;;;;;;;0.68;0.00;;;21.10;44.10;;;;;;4949657;28;20043;-58
2022/02/03 03:48:18;;;;;;;0.40;0.10;;;21.10;44.10;;;;;;4947378;29;20050;-59
2022/02/03 03:50:50;;;;;;;0.55;0.10;;;21.10;44.20;;;;;;4999426;28;20061;-60
2022/02/03 03:53:26;;;;;;;0.88;0.10;;;21.10;44.20;;;;;;5043898;28;20146;-58
2022/02/03 03:56:03;;;;;;;2.17;0.10;;;21.10;44.30;;;;;;5060907;28;20036;-59
2022/02/03 03:58:59;;;;;;;0.03;0.03;;;21.10;44.30;;;;;;5096689;28;20127;-57
2022/02/03 04:30:55;;;;;;;0.40;0.10;;;20.90;44.40;;;;;;5062493;28;20150;-59
2022/02/03 04:42:27;;;;;;;0.63;0.17;;;20.80;44.40;;;;;;5061918;28;20409;-58
2022/02/03 04:45:36;;;;;;;0.55;0.08;;;20.80;44.40;;;;;;5075332;28;20129;-59
2022/02/03 04:51:49;;;;;;;0.77;0.57;;;20.80;44.40;;;;;;5043728;28;20045;-59
2022/02/03 04:58:05;;;;;;;1.90;0.10;;;20.80;44.40;;;;;;5021381;28;20641;-59
2022/02/03 05:03:54;;;;;;;0.03;0.00;;;20.70;44.40;;;;;;5035671;28;20071;-59
2022/02/03 05:06:43;;;;;;;1.45;0.30;;;20.70;44.30;;;;;;5044749;28;20183;-59
2022/02/03 05:09:42;;;;;;;2.10;0.22;;;20.80;44.40;;;;;;5050020;28;20098;-59
2022/02/03 05:12:32;;;;;;;0.95;0.05;;;20.70;44.40;;;;;;5038381;28;20468;-59
2022/02/03 05:42:41;;;;;;;1.25;0.20;;;20.60;44.40;;;;;;4888459;29;20589;-59
2022/02/03 05:45:50;;;;;;;0.10;0.10;;;20.60;44.30;;;;;;4884553;29;20055;-58
2022/02/03 06:05:07;;;;;;;0.28;0.28;;;20.60;44.20;;;;;;4988509;28;20050;-59
2022/02/03 06:07:52;;;;;;;0.43;0.10;;;20.50;44.20;;;;;;5007108;28;20050;-60
2022/02/03 06:13:11;;;;;;;1.90;0.00;;;20.50;44.20;;;;;;5010656;28;20418;-60
2022/02/03 06:15:49;;;;;;;0.60;0.00;;;20.50;44.20;;;;;;5007222;28;20423;-60
2022/02/03 06:23:55;;;;;;;0.20;0.20;;;20.50;44.10;;;;;;5090543;28;20063;-61
2022/02/03 06:29:24;;;;;;;1.52;0.13;;;20.50;44.10;;;;;;5045992;28;20064;-60
2022/02/03 06:31:53;;;;;;;0.85;0.10;;;20.50;44.10;;;;;;5048069;28;20053;-60
2022/02/03 06:34:22;;;;;;;0.10;0.10;;;20.50;44.10;;;;;;5029997;28;20045;-61
2022/02/03 06:36:51;;;;;;;0.20;0.10;;;20.50;44.10;;;;;;5046172;28;20063;-61
2022/02/03 06:39:20;;;;;;;0.65;0.10;;;20.50;44.20;;;;;;5042322;28;20549;-60
2022/02/03 06:41:52;;;;;;;0.52;0.20;;;20.50;44.10;;;;;;5031246;28;20052;-60
2022/02/03 06:44:22;;;;;;;0.32;0.10;;;20.50;44.10;;;;;;5044927;28;20108;-60
2022/02/03 06:46:52;;;;;;;2.08;0.10;;;20.50;44.10;;;;;;5047942;28;20040;-61
2022/02/03 06:49:30;;;;;;;4.63;0.10;;;20.50;44.10;;;;;;5045816;28;20183;-61
2022/02/03 06:52:02;;;;;;;0.68;0.10;;;20.50;44.10;;;;;;5044270;28;20108;-60
2022/02/03 06:54:37;;;;;;;0.10;0.10;;;20.40;44.00;;;;;;5046580;28;20045;-61
2022/02/03 06:57:12;;;;;;;0.60;0.10;;;20.40;44.00;;;;;;5043532;28;20479;-61
2022/02/03 06:59:46;;;;;;;0.10;0.10;;;20.40;44.00;;;;;;5041853;28;20090;-61
2022/02/03 07:02:14;;;;;;;2.53;0.28;;;20.40;43.90;;;;;;5041995;28;20053;-61
2022/02/03 07:04:45;;;;;;;0.57;0.10;;;20.40;43.90;;;;;;5092313;28;20078;-60
2022/02/03 07:07:15;;;;;;;0.28;0.10;;;20.40;43.90;;;;;;5087378;28;20459;-60
2022/02/03 07:09:44;;;;;;;0.20;0.10;;;20.40;43.90;;;;;;5088010;28;20044;-60
2022/02/03 07:12:11;;;;;;;0.30;0.10;;;20.40;43.90;;;;;;5084830;28;20056;-60
2022/02/03 07:14:39;;;;;;;0.63;0.03;;;20.40;43.90;;;;;;5090531;28;20040;-60
2022/02/03 07:17:06;;;;;;;0.22;0.10;;;20.40;44.30;;;;;;5090879;28;20047;-59
2022/02/03 07:19:40;;;;;;;0.40;0.10;;;20.40;43.80;;;;;;5088371;28;20040;-61
2022/02/03 07:22:08;;;;;;;0.20;0.20;;;20.40;43.80;;;;;;5090930;28;20865;-59
2022/02/03 07:24:36;;;;;;;0.43;0.05;;;20.40;43.80;;;;;;5089090;28;20420;-59
2022/02/03 07:27:03;;;;;;;0.38;0.20;;;20.40;43.80;;;;;;5084382;28;20040;-59
2022/02/03 07:29:31;;;;;;;0.08;0.08;;;20.30;43.70;;;;;;5088708;28;20047;-60
2022/02/03 07:32:01;;;;;;;0.10;0.10;;;20.40;43.80;;;;;;5093043;28;20493;-59
2022/02/03 07:34:28;;;;;;;0.43;0.00;;;20.40;43.80;;;;;;5089016;28;20036;-60
2022/02/03 07:36:57;;;;;;;0.10;0.10;;;20.40;43.80;;;;;;5088476;28;20036;-59
2022/02/03 07:39:26;;;;;;;0.15;0.10;;;20.30;44.30;;;;;;5088679;28;20134;-60
2022/02/03 07:41:55;;;;;;;0.10;0.10;;;20.30;43.70;;;;;;5083486;28;20412;-59
2022/02/03 07:44:22;;;;;;;1.33;0.20;;;20.30;43.80;;;;;;5087644;28;20384;-60
2022/02/03 07:46:49;;;;;;;0.10;0.10;;;20.30;43.80;;;;;;5091087;28;20040;-59
2022/02/03 07:49:17;;;;;;;0.43;0.30;;;20.30;43.80;;;;;;5088747;28;20155;-60
2022/02/03 07:51:44;;;;;;;0.10;0.08;;;20.40;43.90;;;;;;5087309;28;20050;-58
2022/02/03 07:54:11;;;;;;;1.40;0.10;;;20.30;43.80;;;;;;5087634;28;20036;-60
2022/02/03 07:56:40;;;;;;;0.15;0.10;;;20.30;43.90;;;;;;5090265;28;20047;-59
2022/02/03 07:59:07;;;;;;;0.10;0.00;;;20.30;43.90;;;;;;5086181;28;20051;-59
2022/02/03 08:01:35;;;;;;;0.68;0.10;;;20.30;44.00;;;;;;5087038;28;20119;-59
2022/02/03 08:04:05;;;;;;;2.92;0.10;;;20.30;44.60;;;;;;5088391;28;20100;-58
2022/02/03 08:06:37;;;;;;;1.55;0.20;;;20.30;44.80;;;;;;5082485;28;20055;-59
2022/02/03 08:09:11;;;;;;;0.10;0.10;;;20.30;45.00;;;;;;5083368;28;20066;-62
2022/02/03 08:11:44;;;;;;;0.13;0.10;;;20.30;45.20;;;;;;5088026;28;20071;-59
2022/02/03 08:14:15;;;;;;;0.60;0.10;;;20.30;45.30;;;;;;5092934;28;20036;-59
2022/02/03 08:16:48;;;;;;;4.90;0.00;;;20.30;45.40;;;;;;5093358;28;20727;-60
2022/02/03 08:19:21;;;;;;;0.95;0.10;;;20.30;45.40;;;;;;5087525;28;20067;-58
2022/02/03 08:21:57;;;;;;;1.15;0.10;;;20.30;45.40;;;;;;5087287;28;20040;-58
2022/02/03 08:24:27;;;;;;;0.47;0.20;;;20.30;45.50;;;;;;5089713;28;20071;-58
2022/02/03 08:27:22;;;;;;;2.28;0.10;;;20.40;45.60;;;;;;5089864;28;20183;-51
2022/02/03 08:30:08;;;;;;;0.10;0.08;;;20.40;45.70;;;;;;5085116;28;20032;-60
2022/02/03 08:32:42;;;;;;;3.45;0.20;;;20.30;45.80;;;;;;5088668;28;20343;-66
2022/02/03 08:35:20;;;;;;;2.33;0.10;;;20.30;46.20;;;;;;5092376;28;20070;-66
2022/02/03 08:37:59;;;;;;;4.28;0.30;;;20.30;46.30;;;;;;5096754;28;20169;-67
2022/02/03 08:40:30;;;;;;;4.93;0.82;;;20.40;46.40;;;;;;5092253;28;20058;-67
2022/02/03 08:42:59;;;;;;;8.18;0.80;;;20.30;46.70;;;;;;5090845;28;20189;-64
2022/02/03 08:45:27;;;;;;;13.15;0.50;;;20.40;47.30;;;;;;5091904;28;20039;-65
2022/02/03 08:47:54;;;;;;;10.25;0.80;;;20.40;48.80;;;;;;5092370;28;20043;-64
2022/02/03 08:50:23;;;;;;;7.95;1.35;;;20.40;49.70;;;;;;5089500;28;20122;-65
2022/02/03 08:53:00;;;;;;;3.17;0.20;;;20.40;50.10;;;;;;5092920;28;20047;-66
2022/02/03 08:55:36;;;;;;;10.25;0.40;;;20.50;50.20;;;;;;5094000;28;20032;-66
2022/02/03 09:54:19;;;;;;;0.60;0.20;;;20.50;50.80;;;;;;4982897;28;20057;-65
2022/02/03 09:59:42;;;;;;;4.22;0.93;;;20.50;50.70;;;;;;4942859;28;20047;-65
2022/02/03 10:02:13;;;;;;;0.57;0.20;;;20.50;50.70;;;;;;4987906;28;20120;-65
2022/02/03 10:04:47;;;;;;;0.68;0.10;;;20.50;50.60;;;;;;4990634;28;20113;-65
2022/02/03 10:07:20;;;;;;;0.60;0.25;;;20.50;50.70;;;;;;4988329;28;20070;-64
2022/02/03 10:09:49;;;;;;;1.50;0.10;;;20.50;51.20;;;;;;4981096;28;20595;-64
2022/02/03 10:12:17;;;;;;;0.52;0.20;;;20.60;50.60;;;;;;5035291;28;20044;-65
2022/02/03 10:14:45;;;;;;;0.60;0.10;;;20.50;50.50;;;;;;5042449;28;20520;-64
2022/02/03 10:17:14;;;;;;;0.93;0.43;;;20.50;50.40;;;;;;5042366;28;20652;-64
2022/02/03 10:19:46;;;;;;;1.77;0.30;;;20.60;50.40;;;;;;5050151;28;20152;-64
2022/02/03 10:22:15;;;;;;;0.88;0.10;;;20.60;50.30;;;;;;5043538;28;20441;-64
2022/02/03 10:24:46;;;;;;;0.47;0.10;;;20.60;50.30;;;;;;5045455;28;20114;-65
2022/02/03 10:27:22;;;;;;;0.22;0.10;;;20.50;50.30;;;;;;5045605;28;20139;-64
2022/02/03 10:29:49;;;;;;;1.05;0.10;;;20.60;50.30;;;;;;5038747;28;20041;-65
2022/02/03 10:32:17;;;;;;;0.57;0.38;;;20.50;50.10;;;;;;5046393;28;20049;-65
2022/02/03 10:34:46;;;;;;;2.10;0.10;;;20.50;50.10;;;;;;5047113;28;20049;-65
2022/02/03 10:37:23;;;;;;;1.50;0.30;;;20.60;50.10;;;;;;5079642;28;20044;-63
2022/02/03 10:45:41;;;;;;;1.02;0.10;;;20.60;49.90;;;;;;5078765;28;20096;-64
2022/02/03 10:50:59;;;;;;;0.35;0.10;;;20.60;49.80;;;;;;5083672;28;20066;-65
2022/02/03 10:56:29;;;;;;;2.03;0.10;;;20.60;49.70;;;;;;5084179;28;20052;-65
2022/02/03 10:59:34;;;;;;;0.20;0.20;;;20.60;49.60;;;;;;5101580;27;20056;-65
2022/02/03 11:02:25;;;;;;;0.40;0.40;;;20.50;49.40;;;;;;5092200;28;20039;-65
2022/02/03 11:05:16;;;;;;;0.20;0.10;;;20.50;49.40;;;;;;5091065;28;20048;-65
2022/02/03 11:07:50;;;;;;;0.20;0.17;;;20.50;49.30;;;;;;5088355;28;20736;-66
2022/02/03 11:10:28;;;;;;;0.10;0.10;;;20.50;49.20;;;;;;5089224;28;20052;-65
2022/02/03 11:12:56;;;;;;;0.40;0.10;;;20.50;49.10;;;;;;5089477;28;20044;-65
2022/02/03 11:15:25;;;;;;;0.20;0.10;;;20.60;49.20;;;;;;5085205;28;20039;-66
2022/02/03 11:17:54;;;;;;;0.10;0.10;;;20.60;49.00;;;;;;5087632;28;20035;-62
2022/02/03 11:20:23;;;;;;;1.20;0.20;;;20.60;48.90;;;;;;5092258;28;20086;-66
2022/02/03 11:23:00;;;;;;;0.68;0.20;;;20.60;48.80;;;;;;5090829;28;20870;-66
2022/02/03 11:25:42;;;;;;;0.05;0.00;;;20.60;48.80;;;;;;5088284;28;20056;-66
2022/02/03 11:40:03;;;;;;;0.20;0.20;;;20.50;48.50;;;;;;5090161;28;20522;-65
2022/02/03 11:42:50;;;;;;;0.63;0.10;;;20.50;48.40;;;;;;5086418;28;20082;-65
2022/02/03 11:45:40;;;;;;;1.20;0.10;;;20.50;48.30;;;;;;5077014;28;20128;-65
2022/02/03 11:48:38;;;;;;;0.40;0.30;;;20.50;48.20;;;;;;5087557;28;20051;-64
2022/02/03 11:54:22;;;;;;;1.85;0.20;;;20.50;48.00;;;;;;5085763;28;20048;-65
2022/02/03 12:00:22;;;;;;;0.30;0.20;;;20.50;47.80;;;;;;5065080;28;20160;-64
2022/02/03 12:03:06;;;;;;;0.20;0.20;;;20.50;47.80;;;;;;5059803;28;20667;-65
2022/02/03 12:17:29;;;;;;;0.50;0.22;;;20.50;47.50;;;;;;4986439;28;20050;-66
2022/02/03 12:20:11;;;;;;;0.32;0.25;;;20.50;47.40;;;;;;4985640;28;20145;-64
2022/02/03 12:25:36;;;;;;;1.08;0.20;;;20.50;47.30;;;;;;4984360;28;20046;-65
2022/02/03 12:28:13;;;;;;;0.90;0.50;;;20.50;47.20;;;;;;4985163;28;20526;-65
2022/02/03 12:31:04;;;;;;;0.98;0.45;;;20.50;47.10;;;;;;4980256;28;20042;-65
2022/02/03 12:39:09;;;;;;;1.13;0.63;;;20.50;47.00;;;;;;5020662;28;20136;-64
2022/02/03 12:41:38;;;;;;;1.03;0.67;;;20.50;46.90;;;;;;5024958;28;20049;-64
2022/02/03 12:44:13;;;;;;;1.70;0.80;;;20.50;46.90;;;;;;5026351;28;20107;-65
2022/02/03 12:46:42;;;;;;;2.63;0.80;;;20.50;46.90;;;;;;5029634;28;20160;-63
2022/02/03 12:49:09;;;;;;;3.13;1.35;;;20.50;46.80;;;;;;5024318;28;20049;-64
2022/02/03 12:51:36;;;;;;;2.83;0.85;;;20.50;46.70;;;;;;5026800;28;20152;-67
2022/02/03 12:54:10;;;;;;;2.50;1.25;;;20.50;46.70;;;;;;5054539;28;20561;-64
2022/02/03 12:56:37;;;;;;;1.90;0.82;;;20.50;46.60;;;;;;5087564;28;20051;-64
2022/02/03 12:59:04;;;;;;;3.40;1.77;;;20.50;46.50;;;;;;5092301;28;20040;-64
2022/02/03 13:01:34;;;;;;;2.83;1.83;;;20.50;46.50;;;;;;5095701;28;20500;-64
2022/02/03 13:04:10;;;;;;;1.15;0.93;;;20.50;46.40;;;;;;5091186;28;20043;-64
2022/02/03 13:06:42;;;;;;;3.55;1.50;;;20.50;46.40;;;;;;5089670;28;20059;-68
2022/02/03 13:09:10;;;;;;;2.58;1.48;;;20.50;46.30;;;;;;5086688;28;20056;-64
2022/02/03 13:11:41;;;;;;;3.42;1.45;;;20.50;46.30;;;;;;5092572;28;20050;-65
2022/02/03 13:14:21;;;;;;;2.45;1.33;;;20.50;46.30;;;;;;5092855;28;20446;-65
2022/02/03 13:16:57;;;;;;;4.28;1.65;;;20.50;46.20;;;;;;5091680;28;20091;-65
2022/02/03 13:19:36;;;;;;;4.07;1.67;;;20.50;46.20;;;;;;5093044;28;20047;-65
2022/02/03 13:22:13;;;;;;;2.05;1.58;;;20.50;46.10;;;;;;5090953;28;20072;-64
2022/02/03 13:25:01;;;;;;;2.15;1.50;;;20.50;46.10;;;;;;5091177;28;20097;-64
2022/02/03 13:27:37;;;;;;;4.03;1.00;;;20.50;46.10;;;;;;5085894;28;20116;-67
2022/02/03 13:30:08;;;;;;;3.17;1.58;;;20.50;46.10;;;;;;5084987;28;20439;-64
2022/02/03 13:32:40;;;;;;;2.55;1.00;;;20.50;46.00;;;;;;5088620;28;20535;-64
2022/02/03 13:35:25;;;;;;;2.20;1.15;;;20.40;45.90;;;;;;5093141;28;20040;-64
2022/02/03 13:37:56;;;;;;;1.65;0.80;;;20.50;45.90;;;;;;5092066;28;20048;-64
2022/02/03 13:40:26;;;;;;;4.15;1.63;;;20.40;45.90;;;;;;5088324;28;20048;-65
2022/02/03 13:43:00;;;;;;;2.25;0.88;;;20.40;45.80;;;;;;5089073;28;20115;-65
2022/02/03 13:45:27;;;;;;;2.03;1.17;;;20.40;45.80;;;;;;5084603;28;20063;-66
2022/02/03 13:47:54;;;;;;;2.17;1.40;;;20.40;45.80;;;;;;5085966;28;20036;-65
2022/02/03 13:50:26;;;;;;;3.13;1.00;;;20.40;45.70;;;;;;5089820;28;20051;-66
2022/02/03 13:52:59;;;;;;;2.97;1.05;;;20.40;45.70;;;;;;5093287;28;20516;-65
2022/02/03 14:15:40;;;;;;;3.03;1.25;;;20.30;45.50;;;;;;4988808;28;20050;-65
2022/02/03 14:21:00;;;;;;;2.40;1.48;;;20.30;45.50;;;;;;4957431;28;20049;-66
2022/02/03 14:29:17;;;;;;;1.92;1.20;;;20.30;46.00;;;;;;4893355;29;20048;-65
2022/02/03 14:31:47;;;;;;;1.90;1.52;;;20.30;45.40;;;;;;4872534;29;20060;-65
2022/02/03 14:34:22;;;;;;;3.50;0.95;;;20.30;45.40;;;;;;4896030;29;20052;-65
2022/02/03 14:36:59;;;;;;;2.20;1.38;;;20.30;45.40;;;;;;4891313;29;20044;-66
2022/02/03 14:39:42;;;;;;;2.50;0.95;;;20.30;45.30;;;;;;4888799;29;20489;-65
2022/02/03 14:42:10;;;;;;;3.95;1.85;;;20.30;45.30;;;;;;4881545;29;20589;-64
2022/02/03 14:44:39;;;;;;;2.47;0.85;;;20.30;45.30;;;;;;4892737;29;20121;-64
2022/02/03 14:47:06;;;;;;;5.13;1.95;;;20.40;45.30;;;;;;4893106;29;20152;-65
2022/02/03 14:49:34;;;;;;;7.20;1.33;;;20.50;45.30;;;;;;4890155;29;20565;-65
2022/02/03 14:52:12;;;;;;;2.67;1.08;;;20.50;45.10;;;;;;4916117;28;20103;-64
2022/02/03 15:00:14;;;;;;;1.80;1.03;;;20.50;44.80;;;;;;5002842;28;20038;-64
2022/02/03 15:02:41;;;;;;;1.30;1.00;;;20.50;44.70;;;;;;5003040;28;20053;-64
2022/02/03 15:05:12;;;;;;;3.65;0.75;;;20.50;44.60;;;;;;5050153;28;20055;-64
2022/02/03 15:07:42;;;;;;;1.55;1.00;;;20.60;44.70;;;;;;5093252;28;20055;-65
2022/02/03 15:10:42;;;;;;;3.22;1.42;;;20.60;44.60;;;;;;5085369;28;20050;-64
2022/02/03 15:13:14;;;;;;;0.93;0.85;;;20.60;44.50;;;;;;5085607;28;20513;-65
2022/02/03 15:15:41;;;;;;;0.98;0.85;;;20.60;44.50;;;;;;5088001;28;20559;-64
2022/02/03 15:18:09;;;;;;;1.02;0.93;;;20.60;44.40;;;;;;5089657;28;20055;-64
2022/02/03 15:20:37;;;;;;;2.17;1.48;;;20.60;44.30;;;;;;5085191;28;20048;-66
2022/02/03 15:23:04;;;;;;;1.92;0.65;;;20.60;44.30;;;;;;5090834;28;20044;-64
2022/02/03 15:25:32;;;;;;;0.60;0.50;;;20.60;44.30;;;;;;5097836;28;20501;-64
2022/02/03 15:27:59;;;;;;;1.70;0.73;;;20.60;44.20;;;;;;5093367;28;20120;-63
2022/02/03 15:30:27;;;;;;;1.52;0.35;;;20.60;44.20;;;;;;5089615;28;20060;-63
2022/02/03 15:32:54;;;;;;;0.90;0.50;;;20.60;44.10;;;;;;5090663;28;20466;-64
2022/02/03 15:35:28;;;;;;;1.15;0.35;;;20.60;44.10;;;;;;5095159;28;20058;-64
2022/02/03 15:37:55;;;;;;;1.58;0.88;;;20.70;44.10;;;;;;5093636;28;20068;-63
2022/02/03 15:40:25;;;;;;;2.22;0.63;;;20.70;44.70;;;;;;5092861;28;20132;-67
2022/02/03 15:43:04;;;;;;;1.42;0.88;;;20.70;44.00;;;;;;5093342;28;20419;-65
2022/02/03 15:45:36;;;;;;;1.02;0.40;;;20.70;44.00;;;;;;5085878;28;20035;-63
2022/02/03 15:48:12;;;;;;;2.05;0.40;;;20.70;44.00;;;;;;5082389;28;20044;-65
2022/02/03 16:18:04;;;;;;;0.85;0.50;;;20.50;43.90;;;;;;5064589;28;20040;-64
2022/02/03 16:20:37;;;;;;;0.60;0.60;;;20.50;43.90;;;;;;5066490;28;20106;-65
2022/02/03 16:23:17;;;;;;;1.10;0.40;;;20.50;43.80;;;;;;5070630;28;20045;-66
2022/02/03 16:26:34;;;;;;;0.82;0.45;;;20.50;43.80;;;;;;5072305;28;20048;-65
2022/02/03 16:51:03;;;;;;;1.95;0.30;;;20.30;43.90;;;;;;4944457;28;20051;-64
2022/02/03 16:53:30;;;;;;;1.08;0.95;;;20.30;43.90;;;;;;4931989;29;20063;-65
2022/02/03 16:56:00;;;;;;;0.30;0.20;;;20.30;43.90;;;;;;4951164;28;20599;-64
2022/02/03 16:58:31;;;;;;;0.20;0.20;;;20.30;43.90;;;;;;4954854;28;20169;-65
2022/02/03 17:00:59;;;;;;;0.73;0.73;;;20.30;44.50;;;;;;4934746;29;20066;-64
2022/02/03 17:03:28;;;;;;;0.30;0.20;;;20.30;43.90;;;;;;4947216;28;20039;-64
2022/02/03 17:05:56;;;;;;;0.30;0.30;;;20.30;43.90;;;;;;4948013;28;20118;-64
2022/02/03 17:08:24;;;;;;;0.30;0.13;;;20.30;43.90;;;;;;4952384;28;20059;-65
2022/02/03 17:10:51;;;;;;;0.75;0.17;;;20.30;43.90;;;;;;4951937;28;20158;-64
2022/02/03 17:13:18;;;;;;;0.45;0.40;;;20.30;43.90;;;;;;4949885;28;20050;-64
2022/02/03 17:15:45;;;;;;;0.52;0.45;;;20.30;43.90;;;;;;4950074;28;20040;-64
2022/02/03 17:18:13;;;;;;;0.40;0.30;;;20.30;43.90;;;;;;5029963;28;20045;-65
2022/02/03 17:20:42;;;;;;;0.40;0.40;;;20.30;43.90;;;;;;5024376;28;20136;-64
2022/02/03 17:23:14;;;;;;;0.60;0.30;;;20.20;43.90;;;;;;5029840;28;20532;-64
2022/02/03 17:25:48;;;;;;;0.50;0.22;;;20.20;43.90;;;;;;5024636;28;20081;-65
2022/02/03 17:28:20;;;;;;;0.30;0.30;;;20.20;43.90;;;;;;5050711;28;20515;-62
2022/02/03 17:30:53;;;;;;;0.40;0.22;;;20.20;44.10;;;;;;5084670;28;20119;-62
2022/02/03 17:53:47;;;;;;;1.33;0.20;;;20.20;45.60;;;;;;4923738;29;20611;-68
2022/02/03 18:10:07;;;;;;;2.92;0.40;;;20.10;46.20;;;;;;4898960;29;20152;-67
2022/02/03 18:45:48;;;;;;;5.70;3.60;;;20.20;50.60;;;;;;5032135;28;20580;-78
2022/02/03 18:51:45;;;;;;;2.00;1.52;;;20.30;50.30;;;;;;5097687;28;20044;-62
2022/02/03 18:54:20;;;;;;;3.83;1.52;;;20.30;50.30;;;;;;5094759;28;20041;-60
2022/02/03 18:56:54;;;;;;;1.60;1.50;;;20.30;50.20;;;;;;5088022;28;20044;-57
2022/02/03 19:02:38;;;;;;;1.77;1.05;;;20.30;50.00;;;;;;5090315;28;20516;-60
2022/02/03 19:16:34;;;;;;;1.08;0.63;;;20.30;49.60;;;;;;5059664;28;20041;-59
2022/02/03 19:28:01;;;;;;;3.38;0.77;;;20.30;49.50;;;;;;4945759;29;20054;-61
2022/02/03 20:06:28;;;;;;;5.53;0.90;;;20.40;49.40;;;;;;5050625;28;20044;-62
2022/02/03 20:09:01;;;;;;;2.80;0.60;;;20.40;49.30;;;;;;5050574;28;20068;-63
2022/02/03 20:11:29;;;;;;;7.18;1.58;;;20.30;49.20;;;;;;5048158;28;20054;-59
2022/02/03 20:13:56;;;;;;;11.70;0.80;;;20.40;49.20;;;;;;5045213;28;20608;-61
2022/02/03 20:16:23;;;;;;;5.85;0.90;;;20.40;49.20;;;;;;5044740;28;20048;-60
2022/02/03 20:18:50;;;;;;;1.05;0.40;;;20.40;49.20;;;;;;5043988;28;20056;-60
2022/02/03 20:21:20;;;;;;;10.95;0.75;;;20.40;49.10;;;;;;5044145;28;20056;-60
2022/02/03 20:23:47;;;;;;;9.00;1.00;;;20.40;49.10;;;;;;5041931;28;20119;-51
2022/02/03 20:26:17;;;;;;;7.38;0.82;;;20.40;50.10;;;;;;5045543;28;20059;-49
2022/02/03 20:28:46;;;;;;;15.40;3.13;;;20.40;51.10;;;;;;5044969;28;20166;-53
2022/02/03 20:31:14;;;;;;;9.02;1.48;;;20.40;51.90;;;;;;5043782;28;20525;-53
2022/02/03 20:33:42;;;;;;;12.18;2.65;;;20.40;52.20;;;;;;5044320;28;20156;-50
2022/02/03 20:36:10;;;;;;;4.57;1.17;;;20.50;52.50;;;;;;5038484;28;20702;-51
2022/02/03 20:38:39;;;;;;;1.98;0.98;;;20.50;52.70;;;;;;5076070;28;20076;-41
2022/02/03 20:41:06;;;;;;;7.35;0.82;;;20.50;52.80;;;;;;5091801;28;20043;-49
2022/02/03 20:43:33;;;;;;;8.10;0.88;;;20.40;52.80;;;;;;5090070;28;20150;-49
2022/02/03 20:46:00;;;;;;;9.80;1.20;;;20.50;53.00;;;;;;5091546;28;20055;-49
2022/02/03 20:48:29;;;;;;;6.80;1.02;;;20.50;53.10;;;;;;5088495;28;20130;-50
2022/02/03 20:50:57;;;;;;;2.15;0.60;;;20.50;53.10;;;;;;5090218;28;20040;-50
2022/02/03 20:53:25;;;;;;;3.28;1.48;;;20.50;53.10;;;;;;5094484;27;20419;-50
2022/02/03 20:55:54;;;;;;;1.98;0.65;;;20.50;53.30;;;;;;5091961;28;20048;-49
2022/02/03 20:58:21;;;;;;;4.25;0.50;;;20.50;53.50;;;;;;5088894;28;20044;-46
2022/02/03 21:00:53;;;;;;;1.63;0.65;;;20.50;53.50;;;;;;5091134;28;20131;-49
2022/02/03 21:03:25;;;;;;;2.35;0.85;;;20.50;53.40;;;;;;5092359;28;20126;-48
2022/02/03 21:05:54;;;;;;;2.25;0.57;;;20.50;53.50;;;;;;5087091;28;20040;-49
2022/02/03 21:08:28;;;;;;;4.65;0.63;;;20.50;53.50;;;;;;5091227;28;20044;-52
2022/02/03 21:10:57;;;;;;;3.90;0.85;;;20.50;53.60;;;;;;5094681;28;20036;-52
2022/02/03 21:13:24;;;;;;;4.95;0.50;;;20.50;53.50;;;;;;5091000;28;20212;-48
2022/02/03 21:15:53;;;;;;;0.95;0.75;;;20.50;54.10;;;;;;5090725;28;20040;-52
2022/02/03 21:18:21;;;;;;;4.55;0.40;;;20.50;53.50;;;;;;5087072;28;20785;-50
2022/02/03 21:20:50;;;;;;;3.20;0.63;;;20.50;53.40;;;;;;5091362;28;20078;-50
2022/02/03 21:23:18;;;;;;;8.85;0.63;;;20.50;53.40;;;;;;5091231;28;20139;-48
2022/02/03 21:25:49;;;;;;;4.68;1.17;;;20.50;53.30;;;;;;5091799;28;20051;-48
2022/02/03 21:28:22;;;;;;;4.03;1.13;;;20.50;53.20;;;;;;5085402;28;20531;-52
2022/02/03 21:30:50;;;;;;;7.30;0.60;;;20.50;53.10;;;;;;5084411;28;20042;-52
2022/02/03 21:33:23;;;;;;;3.13;2.20;;;20.50;53.10;;;;;;5083656;28;20538;-48
2022/02/03 21:35:51;;;;;;;2.58;0.88;;;20.50;53.00;;;;;;5084075;28;20771;-51
2022/02/03 21:38:19;;;;;;;1.20;1.05;;;20.50;53.00;;;;;;5084537;28;20127;-49
2022/02/03 21:40:46;;;;;;;3.60;0.85;;;20.50;52.90;;;;;;5086309;28;20039;-50
2022/02/03 21:43:14;;;;;;;4.55;1.10;;;20.50;52.80;;;;;;5085269;28;20032;-45
2022/02/03 21:45:43;;;;;;;0.85;0.85;;;20.40;52.70;;;;;;5084710;28;20044;-51
2022/02/03 21:48:10;;;;;;;1.48;0.50;;;20.50;52.70;;;;;;5084200;28;20040;-49
2022/02/03 21:50:40;;;;;;;1.52;0.50;;;20.50;52.70;;;;;;5085554;28;20036;-51
2022/02/03 21:53:15;;;;;;;1.95;0.50;;;20.40;52.50;;;;;;5087231;28;20174;-47
2022/02/03 21:55:44;;;;;;;4.43;1.00;;;20.40;52.50;;;;;;5086310;28;20044;-52
2022/02/03 21:58:11;;;;;;;2.00;0.65;;;20.40;52.50;;;;;;5084927;28;20296;-47
2022/02/03 22:00:39;;;;;;;1.33;1.05;;;20.40;52.50;;;;;;5086468;28;20039;-48
2022/02/03 22:03:08;;;;;;;1.42;0.80;;;20.40;52.50;;;;;;5085328;28;20067;-48